Wetterdaten für den Flughafen Lübeck Blankensee


ADDS - METARS form results Aviation Digital Data Service (ADDS) Output produced by METARs form (1031 UTC 25 May 2018)
found at http://aviationweather.gov/adds/metars/
 
EDHL 251020Z 08011KT 040V120 CAVOK 25/11 Q1023

Nord: Hamburg, Lübeck
Ost: Schwerin, Rostock
Süd: Hannover
West: Bremen, Nordhloz

 

Copyright © 2016 Flugschule Hohensee